RKTU/CHN METAR and TAF weather

Enter ICAO airport designator
Station Type Date Time Source
RKTU METAR 2018/12/12 11:00 UTC NOAA

RKTU 121100Z 30002KT CAVOK M04/M10 Q1030


Station Type Date Time Source
RKTU Decoded METAR 2018/12/12 11:00 UTC NOAA

Chongju Ab, Korea, South (RKTU) 36-42N 127-30E 66M
Dec 12, 2018 - 06:00 AM EST / 2018.12.12 1100 UTC
Wind: from the WNW (300 degrees) at 2 MPH (2 KT):0
Visibility: greater than 7 mile(s):0
Temperature: 24 F (-4 C)
Dew Point: 14 F (-10 C)
Relative Humidity: 62%
Pressure (altimeter): 30.42 in. Hg (1030 hPa)
ob: RKTU 121100Z 30002KT CAVOK M04/M10 Q1030
cycle: 11

Station Type Date Time Source
RKTU TAF 2018/12/12 12:07 UTC NOAA

TAF RKTU 121100Z 1212/1318 27006KT 9999 SCT030 TNM08/1221Z TX02/1306Z
BECMG 1217/1218 8000 -SN BKN030
BECMG 1223/1224 9999 NSW
BECMG 1303/1304 30010KT 4800 -SN BR
BECMG 1306/1307 30006KT 9999 NSW SCT030


Example: see airport list